sensor_id;sensor_type;location;lat;lon;timestamp;temperature;humidity
652;DHT22;310;48.490;9.200;2023-05-03T00:00:09;13.70;42.10
652;DHT22;310;48.490;9.200;2023-05-03T00:02:35;13.50;41.40
652;DHT22;310;48.490;9.200;2023-05-03T00:05:04;13.80;42.70
652;DHT22;310;48.490;9.200;2023-05-03T00:07:30;13.20;42.50
652;DHT22;310;48.490;9.200;2023-05-03T00:09:56;13.20;40.80
652;DHT22;310;48.490;9.200;2023-05-03T00:12:21;13.20;41.80
652;DHT22;310;48.490;9.200;2023-05-03T00:14:47;13.30;41.70
652;DHT22;310;48.490;9.200;2023-05-03T00:17:12;13.20;41.00
652;DHT22;310;48.490;9.200;2023-05-03T00:19:38;13.20;42.10
652;DHT22;310;48.490;9.200;2023-05-03T00:22:04;13.30;41.30
652;DHT22;310;48.490;9.200;2023-05-03T00:24:30;13.20;41.90
652;DHT22;310;48.490;9.200;2023-05-03T00:26:55;13.60;41.60
652;DHT22;310;48.490;9.200;2023-05-03T00:29:21;13.10;41.80
652;DHT22;310;48.490;9.200;2023-05-03T00:31:47;13.30;41.50
652;DHT22;310;48.490;9.200;2023-05-03T00:34:13;13.30;42.60
652;DHT22;310;48.490;9.200;2023-05-03T00:36:38;13.10;41.20
652;DHT22;310;48.490;9.200;2023-05-03T00:39:04;13.10;41.40
652;DHT22;310;48.490;9.200;2023-05-03T00:41:29;13.30;42.20
652;DHT22;310;48.490;9.200;2023-05-03T00:43:55;12.90;42.10
652;DHT22;310;48.490;9.200;2023-05-03T00:46:21;13.40;42.90
652;DHT22;310;48.490;9.200;2023-05-03T00:48:49;13.00;41.80
652;DHT22;310;48.490;9.200;2023-05-03T00:51:15;13.10;42.10
652;DHT22;310;48.490;9.200;2023-05-03T00:53:43;13.10;41.90
652;DHT22;310;48.490;9.200;2023-05-03T00:56:09;12.90;41.60
652;DHT22;310;48.490;9.200;2023-05-03T00:58:38;13.20;42.50
652;DHT22;310;48.490;9.200;2023-05-03T01:01:07;12.80;42.30
652;DHT22;310;48.490;9.200;2023-05-03T01:03:34;13.10;42.40
652;DHT22;310;48.490;9.200;2023-05-03T01:06:15;12.90;41.80
652;DHT22;310;48.490;9.200;2023-05-03T01:17:29;12.80;41.80
652;DHT22;310;48.490;9.200;2023-05-03T01:20:04;13.10;41.60
652;DHT22;310;48.490;9.200;2023-05-03T01:25:22;12.70;42.10
652;DHT22;310;48.490;9.200;2023-05-03T01:27:48;13.10;42.70
652;DHT22;310;48.490;9.200;2023-05-03T01:30:14;12.70;43.00
652;DHT22;310;48.490;9.200;2023-05-03T01:35:35;12.70;42.10
652;DHT22;310;48.490;9.200;2023-05-03T01:38:02;12.70;42.40
652;DHT22;310;48.490;9.200;2023-05-03T01:40:29;12.60;43.00
652;DHT22;310;48.490;9.200;2023-05-03T01:42:56;12.60;42.50
652;DHT22;310;48.490;9.200;2023-05-03T01:45:22;12.60;42.20
652;DHT22;310;48.490;9.200;2023-05-03T01:47:47;12.60;42.50
652;DHT22;310;48.490;9.200;2023-05-03T01:50:13;12.50;43.00
652;DHT22;310;48.490;9.200;2023-05-03T01:52:38;12.40;42.80
652;DHT22;310;48.490;9.200;2023-05-03T01:55:05;12.50;42.60
652;DHT22;310;48.490;9.200;2023-05-03T01:57:30;12.40;42.80
652;DHT22;310;48.490;9.200;2023-05-03T01:59:56;12.50;42.80
652;DHT22;310;48.490;9.200;2023-05-03T02:02:22;12.40;42.30
652;DHT22;310;48.490;9.200;2023-05-03T02:04:48;12.30;42.70
652;DHT22;310;48.490;9.200;2023-05-03T02:07:13;12.30;42.70
652;DHT22;310;48.490;9.200;2023-05-03T02:09:39;12.30;42.20
652;DHT22;310;48.490;9.200;2023-05-03T02:12:04;12.20;42.70
652;DHT22;310;48.490;9.200;2023-05-03T02:14:31;12.10;42.70
652;DHT22;310;48.490;9.200;2023-05-03T02:16:57;12.10;43.00
652;DHT22;310;48.490;9.200;2023-05-03T02:19:23;12.10;43.30
652;DHT22;310;48.490;9.200;2023-05-03T02:21:49;12.40;42.60
652;DHT22;310;48.490;9.200;2023-05-03T02:24:15;12.30;42.20
652;DHT22;310;48.490;9.200;2023-05-03T02:26:41;12.40;42.40
652;DHT22;310;48.490;9.200;2023-05-03T02:29:06;12.60;43.20
652;DHT22;310;48.490;9.200;2023-05-03T02:31:32;12.30;43.20
652;DHT22;310;48.490;9.200;2023-05-03T02:33:58;12.40;42.60
652;DHT22;310;48.490;9.200;2023-05-03T02:36:23;12.20;42.80
652;DHT22;310;48.490;9.200;2023-05-03T02:38:49;12.30;42.50
652;DHT22;310;48.490;9.200;2023-05-03T02:41:15;12.40;43.00
652;DHT22;310;48.490;9.200;2023-05-03T02:43:40;12.30;42.80
652;DHT22;310;48.490;9.200;2023-05-03T02:46:06;12.30;43.00
652;DHT22;310;48.490;9.200;2023-05-03T02:48:32;12.30;42.40
652;DHT22;310;48.490;9.200;2023-05-03T02:50:57;12.30;42.50
652;DHT22;310;48.490;9.200;2023-05-03T02:53:23;12.30;42.60
652;DHT22;310;48.490;9.200;2023-05-03T02:55:49;12.30;42.60
652;DHT22;310;48.490;9.200;2023-05-03T02:58:14;12.40;42.30
652;DHT22;310;48.490;9.200;2023-05-03T03:00:40;12.30;41.90
652;DHT22;310;48.490;9.200;2023-05-03T03:03:06;12.70;42.60
652;DHT22;310;48.490;9.200;2023-05-03T03:05:32;12.30;42.10
652;DHT22;310;48.490;9.200;2023-05-03T03:07:57;12.20;42.90
652;DHT22;310;48.490;9.200;2023-05-03T03:10:23;12.10;42.50
652;DHT22;310;48.490;9.200;2023-05-03T03:12:49;12.40;43.20
652;DHT22;310;48.490;9.200;2023-05-03T03:15:14;12.20;42.60
652;DHT22;310;48.490;9.200;2023-05-03T03:17:40;12.40;42.50
652;DHT22;310;48.490;9.200;2023-05-03T03:20:06;12.10;42.60
652;DHT22;310;48.490;9.200;2023-05-03T03:22:36;11.90;41.80
652;DHT22;310;48.490;9.200;2023-05-03T03:25:02;12.00;41.70
652;DHT22;310;48.490;9.200;2023-05-03T03:27:29;12.00;41.70
652;DHT22;310;48.490;9.200;2023-05-03T03:29:54;11.90;42.70
652;DHT22;310;48.490;9.200;2023-05-03T03:32:20;12.00;43.10
652;DHT22;310;48.490;9.200;2023-05-03T03:34:46;12.00;41.80
652;DHT22;310;48.490;9.200;2023-05-03T03:37:12;11.80;42.60
652;DHT22;310;48.490;9.200;2023-05-03T03:39:37;11.80;42.50
652;DHT22;310;48.490;9.200;2023-05-03T03:42:05;11.70;42.80
652;DHT22;310;48.490;9.200;2023-05-03T03:44:31;11.80;42.60
652;DHT22;310;48.490;9.200;2023-05-03T03:46:56;12.10;43.30
652;DHT22;310;48.490;9.200;2023-05-03T03:49:22;11.50;43.10
652;DHT22;310;48.490;9.200;2023-05-03T03:51:47;11.40;43.60
652;DHT22;310;48.490;9.200;2023-05-03T03:54:13;11.40;44.70
652;DHT22;310;48.490;9.200;2023-05-03T03:56:39;11.40;43.80
652;DHT22;310;48.490;9.200;2023-05-03T03:59:04;11.40;43.40
652;DHT22;310;48.490;9.200;2023-05-03T04:01:30;11.40;43.20
652;DHT22;310;48.490;9.200;2023-05-03T04:03:56;11.40;43.80
652;DHT22;310;48.490;9.200;2023-05-03T04:06:22;11.50;43.20
652;DHT22;310;48.490;9.200;2023-05-03T04:08:47;11.30;43.40
652;DHT22;310;48.490;9.200;2023-05-03T04:11:13;11.30;44.70
652;DHT22;310;48.490;9.200;2023-05-03T04:13:38;11.40;45.60
652;DHT22;310;48.490;9.200;2023-05-03T04:16:07;11.60;45.40
652;DHT22;310;48.490;9.200;2023-05-03T04:18:33;12.00;45.10
652;DHT22;310;48.490;9.200;2023-05-03T04:20:59;11.80;44.90
652;DHT22;310;48.490;9.200;2023-05-03T04:23:25;12.40;45.00
652;DHT22;310;48.490;9.200;2023-05-03T04:25:50;12.00;44.00
652;DHT22;310;48.490;9.200;2023-05-03T04:28:16;12.10;43.80
652;DHT22;310;48.490;9.200;2023-05-03T04:30:43;12.10;44.80
652;DHT22;310;48.490;9.200;2023-05-03T04:33:12;12.10;45.90
652;DHT22;310;48.490;9.200;2023-05-03T04:35:39;12.20;45.20
652;DHT22;310;48.490;9.200;2023-05-03T04:38:04;12.30;44.40
652;DHT22;310;48.490;9.200;2023-05-03T04:40:30;12.30;44.70
652;DHT22;310;48.490;9.200;2023-05-03T04:42:55;12.40;43.30
652;DHT22;310;48.490;9.200;2023-05-03T04:45:22;12.90;43.40
652;DHT22;310;48.490;9.200;2023-05-03T04:47:48;12.60;43.40
652;DHT22;310;48.490;9.200;2023-05-03T04:50:14;12.60;42.60
652;DHT22;310;48.490;9.200;2023-05-03T04:52:40;12.60;43.30
652;DHT22;310;48.490;9.200;2023-05-03T04:55:05;12.60;43.70
652;DHT22;310;48.490;9.200;2023-05-03T04:57:32;12.60;42.80
652;DHT22;310;48.490;9.200;2023-05-03T04:59:58;12.70;42.60
652;DHT22;310;48.490;9.200;2023-05-03T05:02:24;12.70;41.90
652;DHT22;310;48.490;9.200;2023-05-03T05:04:50;12.70;42.30
652;DHT22;310;48.490;9.200;2023-05-03T05:07:16;12.80;42.40
652;DHT22;310;48.490;9.200;2023-05-03T05:09:42;12.80;43.70
652;DHT22;310;48.490;9.200;2023-05-03T05:12:07;13.10;43.10
652;DHT22;310;48.490;9.200;2023-05-03T05:14:34;13.20;43.90
652;DHT22;310;48.490;9.200;2023-05-03T05:16:59;13.80;42.80
652;DHT22;310;48.490;9.200;2023-05-03T05:19:25;13.20;42.60
652;DHT22;310;48.490;9.200;2023-05-03T05:21:51;13.40;41.60
652;DHT22;310;48.490;9.200;2023-05-03T05:24:17;13.60;40.70
652;DHT22;310;48.490;9.200;2023-05-03T05:26:43;13.60;40.90
652;DHT22;310;48.490;9.200;2023-05-03T05:29:09;13.60;40.50
652;DHT22;310;48.490;9.200;2023-05-03T05:31:34;13.70;40.80
652;DHT22;310;48.490;9.200;2023-05-03T05:34:01;13.70;40.00
652;DHT22;310;48.490;9.200;2023-05-03T05:36:26;13.70;40.20
652;DHT22;310;48.490;9.200;2023-05-03T05:38:52;13.80;40.10
652;DHT22;310;48.490;9.200;2023-05-03T05:41:18;13.90;39.50
652;DHT22;310;48.490;9.200;2023-05-03T05:43:43;14.00;39.30
652;DHT22;310;48.490;9.200;2023-05-03T05:46:10;14.00;39.80
652;DHT22;310;48.490;9.200;2023-05-03T05:48:35;14.10;39.50
652;DHT22;310;48.490;9.200;2023-05-03T05:51:01;13.80;40.00
652;DHT22;310;48.490;9.200;2023-05-03T05:53:27;14.00;40.80
652;DHT22;310;48.490;9.200;2023-05-03T05:55:53;14.10;40.70
652;DHT22;310;48.490;9.200;2023-05-03T05:58:19;14.30;41.20
652;DHT22;310;48.490;9.200;2023-05-03T06:00:44;14.20;40.20
652;DHT22;310;48.490;9.200;2023-05-03T06:03:13;14.00;40.30
652;DHT22;310;48.490;9.200;2023-05-03T06:05:40;14.10;40.80
652;DHT22;310;48.490;9.200;2023-05-03T06:08:05;14.30;40.00
652;DHT22;310;48.490;9.200;2023-05-03T06:10:31;14.30;39.80
652;DHT22;310;48.490;9.200;2023-05-03T06:12:57;14.40;40.00
652;DHT22;310;48.490;9.200;2023-05-03T06:15:22;14.30;39.70
652;DHT22;310;48.490;9.200;2023-05-03T06:17:48;14.80;40.30
652;DHT22;310;48.490;9.200;2023-05-03T06:20:13;14.20;41.50
652;DHT22;310;48.490;9.200;2023-05-03T06:22:40;14.40;41.90
652;DHT22;310;48.490;9.200;2023-05-03T06:25:06;14.60;41.10
652;DHT22;310;48.490;9.200;2023-05-03T06:27:33;14.90;40.40
652;DHT22;310;48.490;9.200;2023-05-03T06:29:58;15.00;39.70
652;DHT22;310;48.490;9.200;2023-05-03T06:32:24;15.30;38.60
652;DHT22;310;48.490;9.200;2023-05-03T06:34:50;15.30;37.90
652;DHT22;310;48.490;9.200;2023-05-03T06:37:16;15.60;37.40
652;DHT22;310;48.490;9.200;2023-05-03T06:39:42;15.60;37.60
652;DHT22;310;48.490;9.200;2023-05-03T06:42:07;15.50;37.50
652;DHT22;310;48.490;9.200;2023-05-03T06:44:33;15.50;38.30
652;DHT22;310;48.490;9.200;2023-05-03T06:46:59;15.30;37.30
652;DHT22;310;48.490;9.200;2023-05-03T06:49:24;14.60;39.40
652;DHT22;310;48.490;9.200;2023-05-03T06:51:50;13.90;42.50
652;DHT22;310;48.490;9.200;2023-05-03T06:54:16;14.40;42.70
652;DHT22;310;48.490;9.200;2023-05-03T06:56:42;14.30;40.60
652;DHT22;310;48.490;9.200;2023-05-03T06:59:07;14.30;41.80
652;DHT22;310;48.490;9.200;2023-05-03T07:01:33;14.00;41.60
652;DHT22;310;48.490;9.200;2023-05-03T07:03:59;14.20;41.50
652;DHT22;310;48.490;9.200;2023-05-03T07:06:25;13.90;42.70
652;DHT22;310;48.490;9.200;2023-05-03T07:08:52;13.90;42.80
652;DHT22;310;48.490;9.200;2023-05-03T07:11:19;13.80;43.40
652;DHT22;310;48.490;9.200;2023-05-03T07:13:49;13.70;43.60
652;DHT22;310;48.490;9.200;2023-05-03T07:16:15;13.10;45.80
652;DHT22;310;48.490;9.200;2023-05-03T07:18:40;13.60;44.50
652;DHT22;310;48.490;9.200;2023-05-03T07:21:06;13.50;44.80
652;DHT22;310;48.490;9.200;2023-05-03T07:23:32;13.30;47.30
652;DHT22;310;48.490;9.200;2023-05-03T07:25:57;13.90;46.00
652;DHT22;310;48.490;9.200;2023-05-03T07:28:23;14.80;43.20
652;DHT22;310;48.490;9.200;2023-05-03T07:30:50;15.60;40.40
652;DHT22;310;48.490;9.200;2023-05-03T07:33:16;16.00;38.10
652;DHT22;310;48.490;9.200;2023-05-03T07:35:44;15.60;38.20
652;DHT22;310;48.490;9.200;2023-05-03T07:38:09;16.00;38.40
652;DHT22;310;48.490;9.200;2023-05-03T07:40:35;16.90;36.70
652;DHT22;310;48.490;9.200;2023-05-03T07:43:01;17.60;35.60
652;DHT22;310;48.490;9.200;2023-05-03T07:45:27;17.60;34.60
652;DHT22;310;48.490;9.200;2023-05-03T07:47:54;17.10;33.70
652;DHT22;310;48.490;9.200;2023-05-03T07:50:19;15.90;37.80
652;DHT22;310;48.490;9.200;2023-05-03T07:52:45;16.40;36.50
652;DHT22;310;48.490;9.200;2023-05-03T07:55:11;16.60;35.00
652;DHT22;310;48.490;9.200;2023-05-03T07:57:37;16.70;35.40
652;DHT22;310;48.490;9.200;2023-05-03T08:00:03;16.00;37.40
652;DHT22;310;48.490;9.200;2023-05-03T08:02:30;16.70;36.60
652;DHT22;310;48.490;9.200;2023-05-03T08:04:55;17.40;35.30
652;DHT22;310;48.490;9.200;2023-05-03T08:07:21;18.00;33.20
652;DHT22;310;48.490;9.200;2023-05-03T08:09:47;17.30;33.90
652;DHT22;310;48.490;9.200;2023-05-03T08:12:13;16.70;35.70
652;DHT22;310;48.490;9.200;2023-05-03T08:14:39;16.20;36.50
652;DHT22;310;48.490;9.200;2023-05-03T08:17:05;15.90;37.80
652;DHT22;310;48.490;9.200;2023-05-03T08:19:31;15.70;38.20
652;DHT22;310;48.490;9.200;2023-05-03T08:21:56;15.20;39.60
652;DHT22;310;48.490;9.200;2023-05-03T08:24:22;15.10;40.10
652;DHT22;310;48.490;9.200;2023-05-03T08:26:48;14.90;41.60
652;DHT22;310;48.490;9.200;2023-05-03T08:29:14;15.00;42.00
652;DHT22;310;48.490;9.200;2023-05-03T08:31:40;14.70;42.50
652;DHT22;310;48.490;9.200;2023-05-03T08:34:06;14.50;44.00
652;DHT22;310;48.490;9.200;2023-05-03T08:36:32;14.90;41.70
652;DHT22;310;48.490;9.200;2023-05-03T08:38:58;14.80;41.90
652;DHT22;310;48.490;9.200;2023-05-03T08:41:27;14.50;43.70
652;DHT22;310;48.490;9.200;2023-05-03T08:43:54;14.30;45.20
652;DHT22;310;48.490;9.200;2023-05-03T08:46:20;14.30;45.00
652;DHT22;310;48.490;9.200;2023-05-03T08:48:47;14.80;43.50
652;DHT22;310;48.490;9.200;2023-05-03T08:51:15;15.60;42.60
652;DHT22;310;48.490;9.200;2023-05-03T08:53:41;16.00;40.00
652;DHT22;310;48.490;9.200;2023-05-03T08:56:07;16.00;40.00
652;DHT22;310;48.490;9.200;2023-05-03T08:58:35;16.00;39.80
652;DHT22;310;48.490;9.200;2023-05-03T09:01:04;16.10;39.50
652;DHT22;310;48.490;9.200;2023-05-03T09:03:31;16.40;38.30
652;DHT22;310;48.490;9.200;2023-05-03T09:05:56;16.60;38.10
652;DHT22;310;48.490;9.200;2023-05-03T09:08:27;16.30;38.20
652;DHT22;310;48.490;9.200;2023-05-03T09:10:52;16.30;40.10
652;DHT22;310;48.490;9.200;2023-05-03T09:13:18;16.10;39.60
652;DHT22;310;48.490;9.200;2023-05-03T09:15:52;16.20;39.30
652;DHT22;310;48.490;9.200;2023-05-03T09:18:19;16.10;39.50
652;DHT22;310;48.490;9.200;2023-05-03T09:20:47;16.30;40.00
652;DHT22;310;48.490;9.200;2023-05-03T09:23:17;17.00;38.20
652;DHT22;310;48.490;9.200;2023-05-03T09:25:46;17.90;36.40
652;DHT22;310;48.490;9.200;2023-05-03T09:28:13;17.90;36.50
652;DHT22;310;48.490;9.200;2023-05-03T09:30:40;17.80;35.80
652;DHT22;310;48.490;9.200;2023-05-03T09:33:07;17.60;36.50
652;DHT22;310;48.490;9.200;2023-05-03T09:35:33;17.60;36.30
652;DHT22;310;48.490;9.200;2023-05-03T09:37:59;17.00;38.30
652;DHT22;310;48.490;9.200;2023-05-03T09:40:28;16.80;39.90
652;DHT22;310;48.490;9.200;2023-05-03T09:43:10;18.00;38.20
652;DHT22;310;48.490;9.200;2023-05-03T09:45:39;17.90;35.80
652;DHT22;310;48.490;9.200;2023-05-03T09:48:05;18.10;36.70
652;DHT22;310;48.490;9.200;2023-05-03T09:50:35;19.00;36.30
652;DHT22;310;48.490;9.200;2023-05-03T09:53:03;20.00;32.60
652;DHT22;310;48.490;9.200;2023-05-03T09:55:33;19.20;32.80
652;DHT22;310;48.490;9.200;2023-05-03T09:58:00;19.70;31.20
652;DHT22;310;48.490;9.200;2023-05-03T10:00:25;19.30;31.80
652;DHT22;310;48.490;9.200;2023-05-03T10:02:53;18.80;35.30
652;DHT22;310;48.490;9.200;2023-05-03T10:05:21;19.00;33.10
652;DHT22;310;48.490;9.200;2023-05-03T10:07:50;19.00;34.20
652;DHT22;310;48.490;9.200;2023-05-03T10:10:17;19.10;32.90
652;DHT22;310;48.490;9.200;2023-05-03T10:12:44;19.90;32.60
652;DHT22;310;48.490;9.200;2023-05-03T10:15:12;20.10;32.00
652;DHT22;310;48.490;9.200;2023-05-03T10:17:39;21.00;29.80
652;DHT22;310;48.490;9.200;2023-05-03T10:23:12;20.90;30.20
652;DHT22;310;48.490;9.200;2023-05-03T10:25:40;21.50;28.40
652;DHT22;310;48.490;9.200;2023-05-03T10:28:25;21.20;29.20
652;DHT22;310;48.490;9.200;2023-05-03T10:30:50;21.80;28.70
652;DHT22;310;48.490;9.200;2023-05-03T10:35:44;22.10;27.40
652;DHT22;310;48.490;9.200;2023-05-03T10:38:24;22.30;26.90
652;DHT22;310;48.490;9.200;2023-05-03T10:40:50;22.00;28.00
652;DHT22;310;48.490;9.200;2023-05-03T10:48:26;21.80;28.40
652;DHT22;310;48.490;9.200;2023-05-03T10:50:53;22.00;27.40
652;DHT22;310;48.490;9.200;2023-05-03T10:53:36;21.50;27.60
652;DHT22;310;48.490;9.200;2023-05-03T10:56:12;21.60;28.50
652;DHT22;310;48.490;9.200;2023-05-03T10:58:47;22.50;27.60
652;DHT22;310;48.490;9.200;2023-05-03T11:01:16;23.20;27.80
652;DHT22;310;48.490;9.200;2023-05-03T11:03:43;23.60;25.70
652;DHT22;310;48.490;9.200;2023-05-03T11:06:29;23.20;24.00
652;DHT22;310;48.490;9.200;2023-05-03T11:08:55;23.30;25.70
652;DHT22;310;48.490;9.200;2023-05-03T11:11:21;23.60;25.40
652;DHT22;310;48.490;9.200;2023-05-03T11:13:49;24.10;24.40
652;DHT22;310;48.490;9.200;2023-05-03T11:16:15;23.10;23.10
652;DHT22;310;48.490;9.200;2023-05-03T11:18:40;23.00;24.00
652;DHT22;310;48.490;9.200;2023-05-03T11:21:06;23.00;23.60
652;DHT22;310;48.490;9.200;2023-05-03T11:23:32;23.80;23.30
652;DHT22;310;48.490;9.200;2023-05-03T11:25:57;25.30;22.30
652;DHT22;310;48.490;9.200;2023-05-03T11:28:24;26.20;19.60
652;DHT22;310;48.490;9.200;2023-05-03T11:30:50;26.00;20.40
652;DHT22;310;48.490;9.200;2023-05-03T11:33:16;25.70;19.60
652;DHT22;310;48.490;9.200;2023-05-03T11:35:41;25.60;23.10
652;DHT22;310;48.490;9.200;2023-05-03T11:38:08;26.40;21.00
652;DHT22;310;48.490;9.200;2023-05-03T11:40:34;26.60;20.40
652;DHT22;310;48.490;9.200;2023-05-03T11:43:01;27.40;19.00
652;DHT22;310;48.490;9.200;2023-05-03T11:45:31;26.70;18.20
652;DHT22;310;48.490;9.200;2023-05-03T11:48:02;27.60;18.10
652;DHT22;310;48.490;9.200;2023-05-03T11:50:51;29.10;17.60
652;DHT22;310;48.490;9.200;2023-05-03T11:53:21;28.70;17.80
652;DHT22;310;48.490;9.200;2023-05-03T11:55:49;28.60;18.40
652;DHT22;310;48.490;9.200;2023-05-03T11:58:16;29.20;16.10
652;DHT22;310;48.490;9.200;2023-05-03T12:00:46;29.60;16.00
652;DHT22;310;48.490;9.200;2023-05-03T12:03:26;28.40;17.10
652;DHT22;310;48.490;9.200;2023-05-03T12:05:57;27.40;17.60
652;DHT22;310;48.490;9.200;2023-05-03T12:08:29;27.50;18.70
652;DHT22;310;48.490;9.200;2023-05-03T12:10:57;28.90;17.30
652;DHT22;310;48.490;9.200;2023-05-03T12:13:26;29.70;17.00
652;DHT22;310;48.490;9.200;2023-05-03T12:15:56;29.30;15.20
652;DHT22;310;48.490;9.200;2023-05-03T12:18:24;29.30;17.20
652;DHT22;310;48.490;9.200;2023-05-03T12:20:55;29.70;15.60
652;DHT22;310;48.490;9.200;2023-05-03T12:23:24;29.80;17.90
652;DHT22;310;48.490;9.200;2023-05-03T12:25:51;31.30;13.60
652;DHT22;310;48.490;9.200;2023-05-03T12:28:17;32.30;14.00
652;DHT22;310;48.490;9.200;2023-05-03T12:30:43;32.80;11.60
652;DHT22;310;48.490;9.200;2023-05-03T12:33:09;32.60;10.70
652;DHT22;310;48.490;9.200;2023-05-03T12:35:35;31.90;11.40
652;DHT22;310;48.490;9.200;2023-05-03T12:38:01;30.40;11.70
652;DHT22;310;48.490;9.200;2023-05-03T12:40:32;29.70;13.60
652;DHT22;310;48.490;9.200;2023-05-03T12:42:58;30.20;13.40
652;DHT22;310;48.490;9.200;2023-05-03T12:45:26;31.20;10.80
652;DHT22;310;48.490;9.200;2023-05-03T12:47:52;32.10;11.80
652;DHT22;310;48.490;9.200;2023-05-03T12:50:17;32.00;10.70
652;DHT22;310;48.490;9.200;2023-05-03T12:52:44;31.80;9.60
652;DHT22;310;48.490;9.200;2023-05-03T12:55:10;31.20;10.60
652;DHT22;310;48.490;9.200;2023-05-03T12:57:36;30.20;12.30
652;DHT22;310;48.490;9.200;2023-05-03T13:00:02;31.70;12.40
652;DHT22;310;48.490;9.200;2023-05-03T13:02:28;33.10;8.60
652;DHT22;310;48.490;9.200;2023-05-03T13:04:53;34.10;8.90
652;DHT22;310;48.490;9.200;2023-05-03T13:07:27;34.80;7.10
652;DHT22;310;48.490;9.200;2023-05-03T13:09:54;35.00;5.60
652;DHT22;310;48.490;9.200;2023-05-03T13:12:20;33.30;7.50
652;DHT22;310;48.490;9.200;2023-05-03T13:14:49;32.30;8.10
652;DHT22;310;48.490;9.200;2023-05-03T13:17:16;30.10;11.80
652;DHT22;310;48.490;9.200;2023-05-03T13:19:42;30.30;11.60
652;DHT22;310;48.490;9.200;2023-05-03T13:22:15;29.20;11.50
652;DHT22;310;48.490;9.200;2023-05-03T13:24:43;29.90;11.40
652;DHT22;310;48.490;9.200;2023-05-03T13:27:09;30.40;9.60
652;DHT22;310;48.490;9.200;2023-05-03T13:29:38;29.90;10.20
652;DHT22;310;48.490;9.200;2023-05-03T13:32:05;28.80;10.80
652;DHT22;310;48.490;9.200;2023-05-03T13:34:31;27.60;13.40
652;DHT22;310;48.490;9.200;2023-05-03T13:36:57;27.40;11.50
652;DHT22;310;48.490;9.200;2023-05-03T13:39:23;26.90;12.20
652;DHT22;310;48.490;9.200;2023-05-03T13:41:48;26.10;14.30
652;DHT22;310;48.490;9.200;2023-05-03T13:44:15;26.80;17.30
652;DHT22;310;48.490;9.200;2023-05-03T13:46:41;28.80;13.00
652;DHT22;310;48.490;9.200;2023-05-03T13:49:07;30.60;11.10
652;DHT22;310;48.490;9.200;2023-05-03T13:51:34;29.60;11.20
652;DHT22;310;48.490;9.200;2023-05-03T13:54:00;28.70;11.50
652;DHT22;310;48.490;9.200;2023-05-03T13:56:27;27.80;13.60
652;DHT22;310;48.490;9.200;2023-05-03T13:58:53;27.40;13.90
652;DHT22;310;48.490;9.200;2023-05-03T14:01:27;28.50;13.20
652;DHT22;310;48.490;9.200;2023-05-03T14:03:56;30.60;10.80
652;DHT22;310;48.490;9.200;2023-05-03T14:06:21;31.40;11.70
652;DHT22;310;48.490;9.200;2023-05-03T14:08:48;33.40;8.10
652;DHT22;310;48.490;9.200;2023-05-03T14:11:18;34.40;5.90
652;DHT22;310;48.490;9.200;2023-05-03T14:13:46;35.00;6.10
652;DHT22;310;48.490;9.200;2023-05-03T14:16:15;35.90;4.90
652;DHT22;310;48.490;9.200;2023-05-03T14:18:41;36.10;4.30
652;DHT22;310;48.490;9.200;2023-05-03T14:21:07;37.70;3.50
652;DHT22;310;48.490;9.200;2023-05-03T14:23:33;38.00;3.20
652;DHT22;310;48.490;9.200;2023-05-03T14:26:00;36.20;4.30
652;DHT22;310;48.490;9.200;2023-05-03T14:28:25;35.30;4.40
652;DHT22;310;48.490;9.200;2023-05-03T14:30:51;33.70;6.20
652;DHT22;310;48.490;9.200;2023-05-03T14:33:16;32.30;7.80
652;DHT22;310;48.490;9.200;2023-05-03T14:35:42;30.30;10.30
652;DHT22;310;48.490;9.200;2023-05-03T14:38:08;29.30;10.30
652;DHT22;310;48.490;9.200;2023-05-03T14:40:34;28.40;11.60
652;DHT22;310;48.490;9.200;2023-05-03T14:43:00;28.60;11.50
652;DHT22;310;48.490;9.200;2023-05-03T14:45:25;29.10;10.50
652;DHT22;310;48.490;9.200;2023-05-03T14:47:51;31.00;12.50
652;DHT22;310;48.490;9.200;2023-05-03T14:50:17;32.40;9.20
652;DHT22;310;48.490;9.200;2023-05-03T14:52:42;31.20;7.80
652;DHT22;310;48.490;9.200;2023-05-03T14:55:08;32.00;8.30
652;DHT22;310;48.490;9.200;2023-05-03T14:57:34;32.60;6.00
652;DHT22;310;48.490;9.200;2023-05-03T15:00:01;33.20;7.40
652;DHT22;310;48.490;9.200;2023-05-03T15:02:26;32.10;8.00
652;DHT22;310;48.490;9.200;2023-05-03T15:04:52;32.20;7.00
652;DHT22;310;48.490;9.200;2023-05-03T15:07:18;31.70;6.50
652;DHT22;310;48.490;9.200;2023-05-03T15:09:44;32.20;6.90
652;DHT22;310;48.490;9.200;2023-05-03T15:12:10;31.50;8.10
652;DHT22;310;48.490;9.200;2023-05-03T15:14:36;30.30;7.50
652;DHT22;310;48.490;9.200;2023-05-03T15:17:02;30.40;7.50
652;DHT22;310;48.490;9.200;2023-05-03T15:19:28;31.20;8.70
652;DHT22;310;48.490;9.200;2023-05-03T15:21:53;30.90;9.10
652;DHT22;310;48.490;9.200;2023-05-03T15:24:19;31.60;7.50
652;DHT22;310;48.490;9.200;2023-05-03T15:26:46;31.30;6.30
652;DHT22;310;48.490;9.200;2023-05-03T15:29:12;30.50;7.20
652;DHT22;310;48.490;9.200;2023-05-03T15:31:39;30.00;7.50
652;DHT22;310;48.490;9.200;2023-05-03T15:34:05;30.40;7.70
652;DHT22;310;48.490;9.200;2023-05-03T15:36:30;30.60;8.50
652;DHT22;310;48.490;9.200;2023-05-03T15:38:57;29.80;7.70
652;DHT22;310;48.490;9.200;2023-05-03T15:41:22;29.60;7.10
652;DHT22;310;48.490;9.200;2023-05-03T15:43:48;28.80;8.90
652;DHT22;310;48.490;9.200;2023-05-03T15:46:14;28.30;9.90
652;DHT22;310;48.490;9.200;2023-05-03T15:48:40;27.80;10.20
652;DHT22;310;48.490;9.200;2023-05-03T15:51:06;27.40;10.60
652;DHT22;310;48.490;9.200;2023-05-03T15:53:31;26.50;11.70
652;DHT22;310;48.490;9.200;2023-05-03T15:55:57;26.30;13.50
652;DHT22;310;48.490;9.200;2023-05-03T15:58:24;26.50;12.20
652;DHT22;310;48.490;9.200;2023-05-03T16:00:49;26.80;11.20
652;DHT22;310;48.490;9.200;2023-05-03T16:03:16;28.00;9.60
652;DHT22;310;48.490;9.200;2023-05-03T16:05:43;29.50;8.70
652;DHT22;310;48.490;9.200;2023-05-03T16:08:11;30.10;11.00
652;DHT22;310;48.490;9.200;2023-05-03T16:10:36;30.90;7.70
652;DHT22;310;48.490;9.200;2023-05-03T16:13:02;31.50;6.40
652;DHT22;310;48.490;9.200;2023-05-03T16:15:28;30.70;9.60
652;DHT22;310;48.490;9.200;2023-05-03T16:17:53;30.80;6.90
652;DHT22;310;48.490;9.200;2023-05-03T16:20:19;30.50;8.40
652;DHT22;310;48.490;9.200;2023-05-03T16:22:45;30.60;9.20
652;DHT22;310;48.490;9.200;2023-05-03T16:25:11;30.50;9.60
652;DHT22;310;48.490;9.200;2023-05-03T16:27:37;29.80;10.10
652;DHT22;310;48.490;9.200;2023-05-03T16:30:05;28.30;10.50
652;DHT22;310;48.490;9.200;2023-05-03T16:32:31;26.90;13.80
652;DHT22;310;48.490;9.200;2023-05-03T16:34:56;26.50;12.30
652;DHT22;310;48.490;9.200;2023-05-03T16:37:22;25.40;14.10
652;DHT22;310;48.490;9.200;2023-05-03T16:39:47;24.90;16.90
652;DHT22;310;48.490;9.200;2023-05-03T16:42:13;24.50;15.50
652;DHT22;310;48.490;9.200;2023-05-03T16:44:38;24.20;15.30
652;DHT22;310;48.490;9.200;2023-05-03T16:47:04;24.30;18.10
652;DHT22;310;48.490;9.200;2023-05-03T16:49:34;24.90;16.30
652;DHT22;310;48.490;9.200;2023-05-03T16:51:59;25.50;15.60
652;DHT22;310;48.490;9.200;2023-05-03T16:54:26;25.70;15.20
652;DHT22;310;48.490;9.200;2023-05-03T16:56:52;26.30;13.70